Time;durP1;ratioP1;P1;durP2;ratioP2;P2;SDS_P1;SDS_P2;PMS_P1;PMS_P2;Temp;Humidity;BMP_temperature;BMP_pressure;BME280_temperature;BME280_humidity;BME280_pressure;Samples;Min_cycle;Max_cycle;Signal;HPM_P1;HPM_P2
2021/05/10 00:01:29;;;;;;;;;;;;;;;;;;5074584;28;19905;-67
2021/05/10 00:03:55;;;;;;;;;;;;;;;;;;5074309;28;20011;-66
2021/05/10 00:06:21;;;;;;;;;;;;;;;;;;5074258;28;19904;-67
2021/05/10 00:08:48;;;;;;;;;;;;;;;;;;5074463;28;19915;-66
2021/05/10 00:11:14;;;;;;;;;;;;;;;;;;5074224;28;19908;-65
2021/05/10 00:13:44;;;;;;;;;;;;;;;;;;5074440;28;19983;-66
2021/05/10 00:16:10;;;;;;;;;;;;;;;;;;5074416;28;19910;-64
2021/05/10 00:18:36;;;;;;;;;;;;;;;;;;5074389;28;19944;-63
2021/05/10 00:21:02;;;;;;;;;;;;;;;;;;5074042;28;19966;-65
2021/05/10 00:23:28;;;;;;;;;;;;;;;;;;5074881;28;20003;-64
2021/05/10 00:25:54;;;;;;;;;;;;;;;;;;5074036;28;19904;-64
2021/05/10 00:28:20;;;;;;;;;;;;;;;;;;5074232;28;19994;-64
2021/05/10 00:30:46;;;;;;;;;;;;;;;;;;5073624;28;19923;-65
2021/05/10 00:33:12;;;;;;;;;;;;;;;;;;5074118;28;19998;-64
2021/05/10 00:35:38;;;;;;;;;;;;;;;;;;5073925;28;19912;-66
2021/05/10 00:38:04;;;;;;;;;;;;;;;;;;5074319;28;20341;-65
2021/05/10 00:40:30;;;;;;;;;;;;;;;;;;5074168;28;20363;-66
2021/05/10 00:42:56;;;;;;;;;;;;;;;;;;5074087;28;19916;-66
2021/05/10 00:45:22;;;;;;;;;;;;;;;;;;5074373;28;19916;-66
2021/05/10 00:47:48;;;;;;;;;;;;;;;;;;5074120;28;20274;-67
2021/05/10 00:50:14;;;;;;;;;;;;;;;;;;5073673;28;19908;-67
2021/05/10 00:52:40;;;;;;;;;;;;;;;;;;5073740;28;19946;-66
2021/05/10 00:55:06;;;;;;;;;;;;;;;;;;5074026;28;19908;-66
2021/05/10 00:57:32;;;;;;;;;;;;;;;;;;5076424;28;20390;-67
2021/05/10 00:59:58;;;;;;;;;;;;;;;;;;5077523;28;19904;-67
2021/05/10 01:02:24;;;;;;;;;;;;;;;;;;5078073;28;19904;-66
2021/05/10 01:04:50;;;;;;;;;;;;;;;;;;5078130;28;19904;-66
2021/05/10 01:07:15;;;;;;;;;;;;;;;;;;5077957;28;20468;-64
2021/05/10 01:09:41;;;;;;;;;;;;;;;;;;5078102;28;19912;-64
2021/05/10 01:12:07;;;;;;;;;;;;;;;;;;5078100;28;19916;-64
2021/05/10 01:14:33;;;;;;;;;;;;;;;;;;5077630;28;19911;-64
2021/05/10 01:16:59;;;;;;;;;;;;;;;;;;5078092;28;19908;-65
2021/05/10 01:19:26;;;;;;;;;;;;;;;;;;5077444;28;19905;-67
2021/05/10 01:21:52;;;;;;;;;;;;;;;;;;5077130;28;19958;-64
2021/05/10 01:24:17;;;;;;;;;;;;;;;;;;5077607;28;19908;-64
2021/05/10 01:26:43;;;;;;;;;;;;;;;;;;5077256;28;19904;-63
2021/05/10 01:29:09;;;;;;;;;;;;;;;;;;5077449;28;19947;-69
2021/05/10 01:31:35;;;;;;;;;;;;;;;;;;5059542;28;19959;-69
2021/05/10 01:34:01;;;;;;;;;;;;;;;;;;5077037;28;19904;-68
2021/05/10 01:36:27;;;;;;;;;;;;;;;;;;5078213;28;19915;-68
2021/05/10 01:38:53;;;;;;;;;;;;;;;;;;5077288;28;20345;-66
2021/05/10 01:41:19;;;;;;;;;;;;;;;;;;5076859;28;20314;-67
2021/05/10 01:43:45;;;;;;;;;;;;;;;;;;5077066;28;19923;-67
2021/05/10 01:46:11;;;;;;;;;;;;;;;;;;5077546;28;20041;-67
2021/05/10 01:48:37;;;;;;;;;;;;;;;;;;5076475;28;19911;-67
2021/05/10 01:51:04;;;;;;;;;;;;;;;;;;5077418;28;20305;-67
2021/05/10 01:53:32;;;;;;;;;;;;;;;;;;5076762;28;19904;-66
2021/05/10 01:55:58;;;;;;;;;;;;;;;;;;5076997;28;19904;-65
2021/05/10 01:58:24;;;;;;;;;;;;;;;;;;5077002;28;19908;-67
2021/05/10 02:00:50;;;;;;;;;;;;;;;;;;5058910;28;19908;-67
2021/05/10 02:03:16;;;;;;;;;;;;;;;;;;5076642;28;20010;-67
2021/05/10 02:05:42;;;;;;;;;;;;;;;;;;5076872;28;19904;-67
2021/05/10 02:08:08;;;;;;;;;;;;;;;;;;5076218;28;19984;-67
2021/05/10 02:10:34;;;;;;;;;;;;;;;;;;5076373;28;19916;-67
2021/05/10 02:13:00;;;;;;;;;;;;;;;;;;5077000;28;19908;-67
2021/05/10 02:15:26;;;;;;;;;;;;;;;;;;5076651;28;20003;-68
2021/05/10 02:17:52;;;;;;;;;;;;;;;;;;5076326;28;19919;-67
2021/05/10 02:20:18;;;;;;;;;;;;;;;;;;5076485;28;20471;-65
2021/05/10 02:22:44;;;;;;;;;;;;;;;;;;5058191;28;19905;-67
2021/05/10 02:25:10;;;;;;;;;;;;;;;;;;5076544;28;19904;-66
2021/05/10 02:27:35;;;;;;;;;;;;;;;;;;5076655;28;19908;-67
2021/05/10 02:30:01;;;;;;;;;;;;;;;;;;5058003;28;19908;-68
2021/05/10 02:32:27;;;;;;;;;;;;;;;;;;5058341;28;19909;-68
2021/05/10 02:34:53;;;;;;;;;;;;;;;;;;5058264;28;19904;-67
2021/05/10 02:37:19;;;;;;;;;;;;;;;;;;5075895;28;19911;-68
2021/05/10 02:39:45;;;;;;;;;;;;;;;;;;5058282;28;20349;-68
2021/05/10 02:42:11;;;;;;;;;;;;;;;;;;5076184;28;19904;-68
2021/05/10 02:44:39;;;;;;;;;;;;;;;;;;5075652;28;20260;-67
2021/05/10 02:47:05;;;;;;;;;;;;;;;;;;5058097;28;20325;-68
2021/05/10 02:49:31;;;;;;;;;;;;;;;;;;5076013;28;19915;-67
2021/05/10 02:51:57;;;;;;;;;;;;;;;;;;5075678;28;19916;-68
2021/05/10 02:54:23;;;;;;;;;;;;;;;;;;5076193;28;19905;-68
2021/05/10 02:56:49;;;;;;;;;;;;;;;;;;5075843;28;19904;-68
2021/05/10 02:59:15;;;;;;;;;;;;;;;;;;5075216;28;19940;-68
2021/05/10 03:01:41;;;;;;;;;;;;;;;;;;5075809;28;19904;-68
2021/05/10 03:04:07;;;;;;;;;;;;;;;;;;5057745;28;19912;-68
2021/05/10 03:06:33;;;;;;;;;;;;;;;;;;5075783;28;20338;-67
2021/05/10 03:08:59;;;;;;;;;;;;;;;;;;5075562;28;20335;-68
2021/05/10 03:11:25;;;;;;;;;;;;;;;;;;5075615;28;19909;-67
2021/05/10 03:13:51;;;;;;;;;;;;;;;;;;5074967;28;19905;-67
2021/05/10 03:16:16;;;;;;;;;;;;;;;;;;5075809;28;20301;-69
2021/05/10 03:18:42;;;;;;;;;;;;;;;;;;5074674;28;19958;-69
2021/05/10 03:21:08;;;;;;;;;;;;;;;;;;5057020;28;19909;-67
2021/05/10 03:23:34;;;;;;;;;;;;;;;;;;5075361;28;19912;-67
2021/05/10 03:26:00;;;;;;;;;;;;;;;;;;5074707;28;19911;-67
2021/05/10 03:28:26;;;;;;;;;;;;;;;;;;5075258;28;19908;-66
2021/05/10 03:30:52;;;;;;;;;;;;;;;;;;5075364;28;19962;-65
2021/05/10 03:33:18;;;;;;;;;;;;;;;;;;5074790;28;19904;-66
2021/05/10 03:35:44;;;;;;;;;;;;;;;;;;5075401;28;19998;-66
2021/05/10 03:38:10;;;;;;;;;;;;;;;;;;5075069;28;19908;-65
2021/05/10 03:40:36;;;;;;;;;;;;;;;;;;5056788;28;19914;-66
2021/05/10 03:43:02;;;;;;;;;;;;;;;;;;5074988;28;19905;-64
2021/05/10 03:45:28;;;;;;;;;;;;;;;;;;5075250;28;20261;-64
2021/05/10 03:47:54;;;;;;;;;;;;;;;;;;5074606;28;19908;-64
2021/05/10 03:50:20;;;;;;;;;;;;;;;;;;5056833;28;19934;-67
2021/05/10 03:52:46;;;;;;;;;;;;;;;;;;5074476;28;19912;-66
2021/05/10 03:55:13;;;;;;;;;;;;;;;;;;5074621;28;19991;-67
2021/05/10 03:57:39;;;;;;;;;;;;;;;;;;5074707;28;19904;-66
2021/05/10 04:00:06;;;;;;;;;;;;;;;;;;5074330;28;19904;-66
2021/05/10 04:02:32;;;;;;;;;;;;;;;;;;5056325;28;19904;-66
2021/05/10 04:07:41;;;;;;;;;;;;;;;;;;5074562;28;20451;-67
2021/05/10 04:15:35;;;;;;;;;;;;;;;;;;5073936;28;19958;-68
2021/05/10 04:18:01;;;;;;;;;;;;;;;;;;5074355;28;19904;-68
2021/05/10 04:20:27;;;;;;;;;;;;;;;;;;5074655;28;20268;-67
2021/05/10 04:22:53;;;;;;;;;;;;;;;;;;5074182;28;20003;-69
2021/05/10 04:25:19;;;;;;;;;;;;;;;;;;5074275;28;19905;-69
2021/05/10 04:27:46;;;;;;;;;;;;;;;;;;5056918;28;19904;-69
2021/05/10 04:30:12;;;;;;;;;;;;;;;;;;5073483;28;19916;-69
2021/05/10 04:32:38;;;;;;;;;;;;;;;;;;5074252;28;19909;-68
2021/05/10 04:35:04;;;;;;;;;;;;;;;;;;5056222;28;19911;-70
2021/05/10 04:37:30;;;;;;;;;;;;;;;;;;5073640;28;19904;-69
2021/05/10 04:39:56;;;;;;;;;;;;;;;;;;5056157;28;19912;-69
2021/05/10 04:42:22;;;;;;;;;;;;;;;;;;5074135;28;19912;-69
2021/05/10 04:44:49;;;;;;;;;;;;;;;;;;5075929;28;19947;-70
2021/05/10 04:47:15;;;;;;;;;;;;;;;;;;5094896;28;19937;-69
2021/05/10 04:49:41;;;;;;;;;;;;;;;;;;5093554;28;19914;-69
2021/05/10 04:52:07;;;;;;;;;;;;;;;;;;5093913;28;19908;-70
2021/05/10 04:54:33;;;;;;;;;;;;;;;;;;5093918;28;19926;-70
2021/05/10 04:56:59;;;;;;;;;;;;;;;;;;5093899;28;19904;-69
2021/05/10 04:59:25;;;;;;;;;;;;;;;;;;5093915;28;19990;-68
2021/05/10 05:01:51;;;;;;;;;;;;;;;;;;5092919;28;19954;-68
2021/05/10 05:04:17;;;;;;;;;;;;;;;;;;5094003;28;19911;-68
2021/05/10 05:06:43;;;;;;;;;;;;;;;;;;5094023;28;19904;-68
2021/05/10 05:09:09;;;;;;;;;;;;;;;;;;5093739;28;19956;-68
2021/05/10 05:11:35;;;;;;;;;;;;;;;;;;5093758;28;19908;-68
2021/05/10 05:14:01;;;;;;;;;;;;;;;;;;5093757;28;19904;-69
2021/05/10 05:16:26;;;;;;;;;;;;;;;;;;5094600;28;19907;-69
2021/05/10 05:18:52;;;;;;;;;;;;;;;;;;5093706;28;20398;-69
2021/05/10 05:21:18;;;;;;;;;;;;;;;;;;5094105;28;20349;-69
2021/05/10 05:23:44;;;;;;;;;;;;;;;;;;5092702;28;20341;-68
2021/05/10 05:26:10;;;;;;;;;;;;;;;;;;5093330;28;19958;-69
2021/05/10 05:28:36;;;;;;;;;;;;;;;;;;5092646;28;19908;-68
2021/05/10 05:31:02;;;;;;;;;;;;;;;;;;5093183;28;19912;-69
2021/05/10 05:33:28;;;;;;;;;;;;;;;;;;5092332;28;19904;-68
2021/05/10 05:35:54;;;;;;;;;;;;;;;;;;5094165;28;19949;-67
2021/05/10 05:38:20;;;;;;;;;;;;;;;;;;5093481;28;20003;-67
2021/05/10 05:40:46;;;;;;;;;;;;;;;;;;5093205;28;19908;-66
2021/05/10 05:43:12;;;;;;;;;;;;;;;;;;5096041;28;20002;-66
2021/05/10 05:45:38;;;;;;;;;;;;;;;;;;5078613;28;20387;-67
2021/05/10 05:48:04;;;;;;;;;;;;;;;;;;5077224;28;19958;-67
2021/05/10 05:50:30;;;;;;;;;;;;;;;;;;5076807;28;20424;-71
2021/05/10 05:52:56;;;;;;;;;;;;;;;;;;5076809;28;19912;-67
2021/05/10 05:55:22;;;;;;;;;;;;;;;;;;5076782;28;19927;-70
2021/05/10 05:57:48;;;;;;;;;;;;;;;;;;5059041;28;19911;-67
2021/05/10 06:00:14;;;;;;;;;;;;;;;;;;5076805;28;19904;-66
2021/05/10 06:02:41;;;;;;;;;;;;;;;;;;5076615;28;19999;-66
2021/05/10 06:05:07;;;;;;;;;;;;;;;;;;5076890;28;19950;-66
2021/05/10 06:07:33;;;;;;;;;;;;;;;;;;5076509;28;19908;-68
2021/05/10 06:10:01;;;;;;;;;;;;;;;;;;5076726;28;19931;-66
2021/05/10 06:12:27;;;;;;;;;;;;;;;;;;5076765;28;19920;-65
2021/05/10 06:14:53;;;;;;;;;;;;;;;;;;5076548;28;19905;-68
2021/05/10 06:17:19;;;;;;;;;;;;;;;;;;5076970;28;19905;-68
2021/05/10 06:19:45;;;;;;;;;;;;;;;;;;5076591;28;19912;-68
2021/05/10 06:22:11;;;;;;;;;;;;;;;;;;5076662;28;20002;-68
2021/05/10 06:24:37;;;;;;;;;;;;;;;;;;5076517;28;19962;-67
2021/05/10 06:27:03;;;;;;;;;;;;;;;;;;5076455;28;19950;-68
2021/05/10 06:29:29;;;;;;;;;;;;;;;;;;5076142;28;19915;-69
2021/05/10 06:31:55;;;;;;;;;;;;;;;;;;5058409;28;19909;-68
2021/05/10 06:34:21;;;;;;;;;;;;;;;;;;5058347;28;19952;-68
2021/05/10 06:36:47;;;;;;;;;;;;;;;;;;5076001;28;19908;-68
2021/05/10 06:39:12;;;;;;;;;;;;;;;;;;5076463;28;19970;-67
2021/05/10 06:41:38;;;;;;;;;;;;;;;;;;5075894;28;19905;-67
2021/05/10 06:44:04;;;;;;;;;;;;;;;;;;5075693;28;20004;-68
2021/05/10 06:46:30;;;;;;;;;;;;;;;;;;5076175;28;19908;-70
2021/05/10 06:48:56;;;;;;;;;;;;;;;;;;5075898;28;20049;-69
2021/05/10 06:51:22;;;;;;;;;;;;;;;;;;5058748;28;19915;-68
2021/05/10 06:53:48;;;;;;;;;;;;;;;;;;5076266;28;20348;-68
2021/05/10 06:56:14;;;;;;;;;;;;;;;;;;5075666;28;20318;-67
2021/05/10 06:58:40;;;;;;;;;;;;;;;;;;5075903;28;19905;-67
2021/05/10 07:01:06;;;;;;;;;;;;;;;;;;5075836;28;19909;-68
2021/05/10 07:03:32;;;;;;;;;;;;;;;;;;5075452;28;19911;-66
2021/05/10 07:05:58;;;;;;;;;;;;;;;;;;5075724;28;19911;-67
2021/05/10 07:08:24;;;;;;;;;;;;;;;;;;5075346;28;19905;-68
2021/05/10 07:10:50;;;;;;;;;;;;;;;;;;5075399;28;19916;-69
2021/05/10 07:13:16;;;;;;;;;;;;;;;;;;5075265;28;19935;-70
2021/05/10 07:15:42;;;;;;;;;;;;;;;;;;5057602;28;19905;-71
2021/05/10 07:18:08;;;;;;;;;;;;;;;;;;5064875;28;20345;-70
2021/05/10 07:20:34;;;;;;;;;;;;;;;;;;5045696;28;20003;-70
2021/05/10 07:23:00;;;;;;;;;;;;;;;;;;5064628;28;19905;-67
2021/05/10 07:25:26;;;;;;;;;;;;;;;;;;5063097;28;19962;-70
2021/05/10 07:27:52;;;;;;;;;;;;;;;;;;5067918;28;19997;-67
2021/05/10 07:30:18;;;;;;;;;;;;;;;;;;5063970;28;19908;-67
2021/05/10 07:32:44;;;;;;;;;;;;;;;;;;5062380;28;19923;-66
2021/05/10 07:35:10;;;;;;;;;;;;;;;;;;5064664;28;19905;-69
2021/05/10 07:37:36;;;;;;;;;;;;;;;;;;5063168;28;20007;-70
2021/05/10 07:40:02;;;;;;;;;;;;;;;;;;5044949;28;19908;-68
2021/05/10 07:42:28;;;;;;;;;;;;;;;;;;5059836;28;19911;-66
2021/05/10 07:44:54;;;;;;;;;;;;;;;;;;5054157;28;19917;-70
2021/05/10 07:47:20;;;;;;;;;;;;;;;;;;5054931;28;20435;-70
2021/05/10 07:49:46;;;;;;;;;;;;;;;;;;5054777;28;19908;-69
2021/05/10 07:52:11;;;;;;;;;;;;;;;;;;5054974;28;20251;-68
2021/05/10 07:54:38;;;;;;;;;;;;;;;;;;5054375;28;20328;-67
2021/05/10 07:57:07;;;;;;;;;;;;;;;;;;5054734;28;19950;-67
2021/05/10 07:59:33;;;;;;;;;;;;;;;;;;5054154;28;20342;-68
2021/05/10 08:01:59;;;;;;;;;;;;;;;;;;5054337;28;19950;-68
2021/05/10 08:04:25;;;;;;;;;;;;;;;;;;5054297;28;19928;-67
2021/05/10 08:06:51;;;;;;;;;;;;;;;;;;5053970;28;20265;-67
2021/05/10 08:09:17;;;;;;;;;;;;;;;;;;5054148;28;19913;-65
2021/05/10 08:11:43;;;;;;;;;;;;;;;;;;5055072;28;19905;-65
2021/05/10 08:14:09;;;;;;;;;;;;;;;;;;5058652;28;19908;-70
2021/05/10 08:16:35;;;;;;;;;;;;;;;;;;5064133;28;19931;-67
2021/05/10 08:19:01;;;;;;;;;;;;;;;;;;5062205;28;20345;-67
2021/05/10 08:21:27;;;;;;;;;;;;;;;;;;5062645;28;19915;-68
2021/05/10 08:23:53;;;;;;;;;;;;;;;;;;5072612;28;20353;-65
2021/05/10 08:26:19;;;;;;;;;;;;;;;;;;5074319;28;20360;-67
2021/05/10 08:28:45;;;;;;;;;;;;;;;;;;5073650;28;19904;-65
2021/05/10 08:31:11;;;;;;;;;;;;;;;;;;5075126;28;20226;-69
2021/05/10 08:33:37;;;;;;;;;;;;;;;;;;5052414;28;19917;-65
2021/05/10 08:36:03;;;;;;;;;;;;;;;;;;5063630;28;19911;-69
2021/05/10 08:38:29;;;;;;;;;;;;;;;;;;5062454;28;19904;-65
2021/05/10 08:40:55;;;;;;;;;;;;;;;;;;5059547;28;19940;-68
2021/05/10 08:43:21;;;;;;;;;;;;;;;;;;5053895;28;20375;-67
2021/05/10 08:45:50;;;;;;;;;;;;;;;;;;5071936;28;20292;-66
2021/05/10 08:48:16;;;;;;;;;;;;;;;;;;5073842;28;19905;-71
2021/05/10 08:50:42;;;;;;;;;;;;;;;;;;5074027;28;19913;-68
2021/05/10 08:53:08;;;;;;;;;;;;;;;;;;5077582;28;19915;-67
2021/05/10 08:55:34;;;;;;;;;;;;;;;;;;5081579;28;20010;-67
2021/05/10 08:58:00;;;;;;;;;;;;;;;;;;5083655;28;19911;-66
2021/05/10 09:00:26;;;;;;;;;;;;;;;;;;5082607;28;19908;-66
2021/05/10 09:02:51;;;;;;;;;;;;;;;;;;5081299;28;20586;-66
2021/05/10 09:05:17;;;;;;;;;;;;;;;;;;5083653;28;19950;-68
2021/05/10 09:07:43;;;;;;;;;;;;;;;;;;5081971;28;19904;-69
2021/05/10 09:10:10;;;;;;;;;;;;;;;;;;5081798;28;19927;-69
2021/05/10 09:12:36;;;;;;;;;;;;;;;;;;5082221;28;19908;-67
2021/05/10 09:15:02;;;;;;;;;;;;;;;;;;5082005;28;19930;-68
2021/05/10 09:17:28;;;;;;;;;;;;;;;;;;5075649;28;19904;-66
2021/05/10 09:19:57;;;;;;;;;;;;;;;;;;5077761;28;19904;-67
2021/05/10 09:22:23;;;;;;;;;;;;;;;;;;5077471;28;19951;-67
2021/05/10 09:26:34;;;;;;;5.70;2.05;;;;;;;;;;5091393;28;20362;-66
2021/05/10 09:29:00;;;;;;;;;;;;;;;;;;5092007;28;20122;-66
2021/05/10 09:31:30;;;;;;;4.15;2.60;;;;;;;;;;5091283;28;20299;-66
2021/05/10 09:33:57;;;;;;;14.68;2.63;;;;;;;;;;5090884;28;20025;-66
2021/05/10 09:36:35;;;;;;;23.33;6.03;;;;;;;;;;5091472;28;20039;-66
2021/05/10 09:39:04;;;;;;;7.35;2.03;;;;;;;;;;5091167;28;20020;-66
2021/05/10 09:41:30;;;;;;;5.07;1.90;;;;;;;;;;5090878;28;20021;-66
2021/05/10 09:44:07;;;;;;;9.43;1.93;;;;;;;;;;5090930;28;20449;-66
2021/05/10 09:46:43;;;;;;;5.80;1.95;;;;;;;;;;5090958;28;20064;-66
2021/05/10 09:49:09;;;;;;;4.35;1.88;;;;;;;;;;5090363;28;20016;-66
2021/05/10 09:51:36;;;;;;;4.78;2.78;;;;;;;;;;5091191;28;20397;-66
2021/05/10 09:54:10;;;;;;;11.93;2.93;;;;;;;;;;5090921;28;20035;-64
2021/05/10 09:56:37;;;;;;;5.88;2.80;;;;;;;;;;5090744;28;20248;-66
2021/05/10 09:59:03;;;;;;;;;;;;;;;;;;5091183;28;20020;-68
2021/05/10 10:01:40;;;;;;;21.25;4.00;;;;;;;;;;5090409;28;19904;-67
2021/05/10 10:04:06;;;;;;;5.55;2.13;;;;;;;;;;5090872;28;20357;-68
2021/05/10 10:06:32;;;;;;;22.45;3.42;;;;;;;;;;5090613;28;20461;-68
2021/05/10 10:08:58;;;;;;;5.82;1.63;;;;;;;;;;5089992;28;20135;-68
2021/05/10 10:11:26;;;;;;;11.03;1.97;;;;;;;;;;5090510;28;20469;-68
2021/05/10 10:13:53;;;;;;;4.47;2.28;;;;;;;;;;5090471;28;20031;-67
2021/05/10 10:16:22;;;;;;;6.97;1.23;;;;;;;;;;5090146;28;20472;-67
2021/05/10 10:18:48;;;;;;;9.32;1.60;;;;;;;;;;5090386;28;20051;-67
2021/05/10 10:21:16;;;;;;;3.53;1.20;;;;;;;;;;5090362;28;20048;-68
2021/05/10 10:23:42;;;;;;;3.42;1.10;;;;;;;;;;5089969;28;20031;-67
2021/05/10 10:26:16;;;;;;;5.88;0.95;;;;;;;;;;5090024;28;20056;-67
2021/05/10 10:28:46;;;;;;;4.50;1.20;;;;;;;;;;5090155;28;20048;-67
2021/05/10 10:31:21;;;;;;;6.63;1.30;;;;;;;;;;5089873;28;20074;-68
2021/05/10 10:33:56;;;;;;;2.15;1.15;;;;;;;;;;5090390;28;20020;-68
2021/05/10 10:36:29;;;;;;;1.95;1.40;;;;;;;;;;5084546;28;20104;-67
2021/05/10 10:39:25;;;;;;;5.63;1.25;;;;;;;;;;5076421;28;20021;-68
2021/05/10 10:41:51;;;;;;;4.55;1.15;;;;;;;;;;5076288;28;20017;-68
2021/05/10 10:47:43;;;;;;;6.93;1.70;;;;;;;;;;5091168;27;20358;-68
2021/05/10 10:50:10;;;;;;;4.95;1.55;;;;;;;;;;5091331;28;20158;-66
2021/05/10 10:52:46;;;;;;;1.27;0.70;;;;;;;;;;5091247;28;20099;-66
2021/05/10 10:55:13;;;;;;;4.22;1.23;;;;;;;;;;5091029;28;20017;-66
2021/05/10 10:57:39;;;;;;;2.10;1.00;;;;;;;;;;5091173;28;20039;-65
2021/05/10 11:00:05;;;;;;;8.33;0.90;;;;;;;;;;5091158;28;20029;-66
2021/05/10 11:02:40;;;;;;;1.23;0.68;;;;;;;;;;5090892;28;20243;-66
2021/05/10 11:05:07;;;;;;;5.50;1.10;;;;;;;;;;5090877;28;20476;-66
2021/05/10 11:07:52;;;;;;;3.47;1.20;;;;;;;;;;5091000;28;20028;-69
2021/05/10 11:10:37;;;;;;;2.43;1.53;;;;;;;;;;5090953;28;20074;-67
2021/05/10 11:13:06;;;;;;;2.13;1.17;;;;;;;;;;5090849;28;20129;-67
2021/05/10 11:15:38;;;;;;;4.45;1.75;;;;;;;;;;5091417;28;20051;-68
2021/05/10 11:18:05;;;;;;;3.53;1.05;;;;;;;;;;5090782;28;20023;-68
2021/05/10 11:20:31;;;;;;;;;;;;;;;;;;5090552;28;20404;-68
2021/05/10 11:23:17;;;;;;;4.20;1.15;;;;;;;;;;5091002;28;19904;-68
2021/05/10 11:25:43;;;;;;;1.50;1.08;;;;;;;;;;5090474;28;20150;-68
2021/05/10 11:28:25;;;;;;;7.25;1.45;;;;;;;;;;5090634;28;20020;-69
2021/05/10 11:30:55;;;;;;;5.70;1.20;;;;;;;;;;5090704;28;20024;-68
2021/05/10 11:33:41;;;;;;;2.17;0.85;;;;;;;;;;5090181;28;20021;-67
2021/05/10 11:36:07;;;;;;;2.85;0.98;;;;;;;;;;5090631;28;20028;-66
2021/05/10 11:38:33;;;;;;;1.55;0.77;;;;;;;;;;5090156;28;20477;-68
2021/05/10 11:40:59;;;;;;;1.35;0.75;;;;;;;;;;5090122;28;20542;-67
2021/05/10 11:43:26;;;;;;;1.27;0.93;;;;;;;;;;5090300;28;20025;-69
2021/05/10 11:45:52;;;;;;;1.17;1.08;;;;;;;;;;5090474;28;20376;-67
2021/05/10 11:48:37;;;;;;;4.07;1.10;;;;;;;;;;5089989;28;20029;-67
2021/05/10 11:51:18;;;;;;;4.55;1.80;;;;;;;;;;5089843;28;20032;-66
2021/05/10 11:53:44;;;;;;;4.88;1.70;;;;;;;;;;5090090;28;20071;-67
2021/05/10 11:56:10;;;;;;;5.97;0.93;;;;;;;;;;5089791;28;20485;-69
2021/05/10 11:58:46;;;;;;;2.55;1.38;;;;;;;;;;5076995;28;20298;-66
2021/05/10 12:01:13;;;;;;;3.63;0.63;;;;;;;;;;5075959;28;20028;-66
2021/05/10 12:03:39;;;;;;;1.27;0.70;;;;;;;;;;5076183;28;20021;-68
2021/05/10 12:06:23;;;;;;;1.98;0.70;;;;;;;;;;5075407;28;20103;-67
2021/05/10 12:08:50;;;;;;;1.38;1.02;;;;;;;;;;5074890;28;20036;-66
2021/05/10 12:11:22;;;;;;;7.13;2.13;;;;;;;;;;5076036;28;20488;-67
2021/05/10 12:13:48;;;;;;;3.83;1.50;;;;;;;;;;5071967;28;20246;-67
2021/05/10 12:16:14;;;;;;;1.83;0.68;;;;;;;;;;5075261;28;20075;-68
2021/05/10 12:18:53;;;;;;;3.63;0.70;;;;;;;;;;5075198;28;20400;-67
2021/05/10 12:21:19;;;;;;;3.70;1.13;;;;;;;;;;5074533;28;20583;-67
2021/05/10 12:23:45;;;;;;;5.60;1.52;;;;;;;;;;5074999;28;20021;-68
2021/05/10 12:26:11;;;;;;;8.73;1.45;;;;;;;;;;5075534;28;20035;-67
2021/05/10 12:28:38;;;;;;;2.25;0.98;;;;;;;;;;5073627;28;20029;-67
2021/05/10 12:31:04;;;;;;;4.97;0.88;;;;;;;;;;5075365;28;20036;-66
2021/05/10 12:33:30;;;;;;;2.88;1.38;;;;;;;;;;5074033;28;20103;-67
2021/05/10 12:36:04;;;;;;;5.47;1.42;;;;;;;;;;5073538;28;20055;-66
2021/05/10 12:38:32;;;;;;;5.68;1.30;;;;;;;;;;5074447;28;20052;-66
2021/05/10 12:40:59;;;;;;;2.67;1.38;;;;;;;;;;5074323;28;20021;-67
2021/05/10 12:43:26;;;;;;;3.67;1.17;;;;;;;;;;5073452;28;20028;-66
2021/05/10 12:45:58;;;;;;;6.75;0.90;;;;;;;;;;5074021;28;20071;-66
2021/05/10 12:48:25;;;;;;;4.95;1.33;;;;;;;;;;5074483;28;20032;-66
2021/05/10 12:51:05;;;;;;;3.65;1.25;;;;;;;;;;5073326;28;20028;-67
2021/05/10 12:53:31;;;;;;;2.30;0.70;;;;;;;;;;5075130;28;20029;-66
2021/05/10 12:56:01;;;;;;;2.95;1.33;;;;;;;;;;5074444;28;20025;-67
2021/05/10 12:58:27;;;;;;;3.15;1.25;;;;;;;;;;5073671;28;20025;-67
2021/05/10 13:00:54;;;;;;;3.65;1.17;;;;;;;;;;5074756;28;20017;-67
2021/05/10 13:03:30;;;;;;;6.82;1.42;;;;;;;;;;5074150;28;20031;-68
2021/05/10 13:05:56;;;;;;;2.85;1.38;;;;;;;;;;5072772;28;20116;-68
2021/05/10 13:08:37;;;;;;;4.10;1.58;;;;;;;;;;5073434;28;20083;-67
2021/05/10 13:11:03;;;;;;;6.70;1.08;;;;;;;;;;5072388;28;20070;-68
2021/05/10 13:13:49;;;;;;;7.70;1.67;;;;;;;;;;5074560;28;20075;-69
2021/05/10 13:16:28;;;;;;;1.73;0.50;;;;;;;;;;5073721;28;20033;-69
2021/05/10 13:19:42;;;;;;;1.15;1.05;;;;;;;;;;5073423;28;20052;-69
2021/05/10 13:32:57;;;;;;;3.05;0.60;;;;;;;;;;5073108;28;20043;-68
2021/05/10 13:35:37;;;;;;;4.15;0.65;;;;;;;;;;5073327;28;20074;-70
2021/05/10 13:38:04;;;;;;;3.50;1.08;;;;;;;;;;5073909;28;20017;-69
2021/05/10 13:40:30;;;;;;;;;;;;;;;;;;5072293;28;20044;-69
2021/05/10 13:43:04;;;;;;;;;;;;;;;;;;5074484;28;19931;-70
2021/05/10 13:45:30;;;;;;;4.80;1.20;;;;;;;;;;5072804;28;20010;-69
2021/05/10 13:47:56;;;;;;;1.30;1.20;;;;;;;;;;5073222;28;20099;-69
2021/05/10 13:50:22;;;;;;;2.95;1.00;;;;;;;;;;5071903;28;20538;-69
2021/05/10 13:52:48;;;;;;;4.18;0.88;;;;;;;;;;5073083;28;20059;-68
2021/05/10 13:55:14;;;;;;;1.52;0.82;;;;;;;;;;5073334;28;20032;-70
2021/05/10 13:57:41;;;;;;;1.85;0.90;;;;;;;;;;5071696;28;20107;-68
2021/05/10 14:00:08;;;;;;;2.05;1.05;;;;;;;;;;5072846;28;20020;-73
2021/05/10 14:02:34;;;;;;;2.83;0.98;;;;;;;;;;5072250;28;20060;-73
2021/05/10 14:05:00;;;;;;;5.43;1.23;;;;;;;;;;5071134;28;20424;-72
2021/05/10 14:07:27;;;;;;;2.70;1.20;;;;;;;;;;5071970;28;20024;-71
2021/05/10 14:09:53;;;;;;;8.20;1.17;;;;;;;;;;5071797;28;20056;-70
2021/05/10 14:12:19;;;;;;;4.57;1.48;;;;;;;;;;5072339;28;20469;-69
2021/05/10 14:14:45;;;;;;;4.82;0.88;;;;;;;;;;5073143;28;20411;-70
2021/05/10 14:17:11;;;;;;;5.07;1.00;;;;;;;;;;5073158;28;20031;-71
2021/05/10 14:19:38;;;;;;;2.38;1.25;;;;;;;;;;5072456;28;20060;-71
2021/05/10 14:22:04;;;;;;;;;;;;;;;;;;5072053;28;20059;-71
2021/05/10 14:24:33;;;;;;;4.70;0.95;;;;;;;;;;5071962;28;19905;-70
2021/05/10 14:27:04;;;;;;;5.50;1.08;;;;;;;;;;5072448;28;20043;-68
2021/05/10 14:29:30;;;;;;;3.38;0.73;;;;;;;;;;5072644;28;20107;-67
2021/05/10 14:31:56;;;;;;;1.17;0.70;;;;;;;;;;5073449;28;20087;-70
2021/05/10 14:34:23;;;;;;;5.72;1.75;;;;;;;;;;5072295;28;20066;-69
2021/05/10 14:36:49;;;;;;;6.38;1.38;;;;;;;;;;5073175;28;20035;-67
2021/05/10 14:39:15;;;;;;;4.10;1.48;;;;;;;;;;5072726;28;20025;-71
2021/05/10 14:41:43;;;;;;;2.67;0.93;;;;;;;;;;5072312;28;20029;-68
2021/05/10 14:44:10;;;;;;;3.15;0.60;;;;;;;;;;5073112;28;20044;-69
2021/05/10 14:46:36;;;;;;;3.45;0.93;;;;;;;;;;5072976;28;20186;-69
2021/05/10 14:49:03;;;;;;;2.13;0.82;;;;;;;;;;5071647;28;20021;-69
2021/05/10 14:51:29;;;;;;;3.22;0.88;;;;;;;;;;5072543;28;20491;-67
2021/05/10 14:53:57;;;;;;;2.22;0.82;;;;;;;;;;5072686;28;20493;-70
2021/05/10 14:56:23;;;;;;;1.67;0.60;;;;;;;;;;5071689;28;20107;-70
2021/05/10 14:58:49;;;;;;;6.32;1.08;;;;;;;;;;5072830;28;20028;-71
2021/05/10 15:01:17;;;;;;;1.05;0.95;;;;;;;;;;5072680;28;20070;-72
2021/05/10 15:03:43;;;;;;;1.95;0.88;;;;;;;;;;5071587;28;20473;-71
2021/05/10 15:06:10;;;;;;;1.70;0.85;;;;;;;;;;5071454;28;20507;-72
2021/05/10 15:08:36;;;;;;;3.38;0.52;;;;;;;;;;5072760;28;20021;-71
2021/05/10 15:11:02;;;;;;;4.55;0.65;;;;;;;;;;5070494;28;20473;-72
2021/05/10 15:13:28;;;;;;;2.25;0.75;;;;;;;;;;5072805;28;20036;-71
2021/05/10 15:15:54;;;;;;;1.55;0.88;;;;;;;;;;5072780;28;20057;-70
2021/05/10 15:18:21;;;;;;;3.30;0.60;;;;;;;;;;5071649;28;20032;-71
2021/05/10 15:20:47;;;;;;;4.68;0.82;;;;;;;;;;5071430;28;20027;-71
2021/05/10 15:23:13;;;;;;;1.10;0.70;;;;;;;;;;5072743;28;20062;-71
2021/05/10 15:25:39;;;;;;;4.68;1.75;;;;;;;;;;5071834;28;20500;-71
2021/05/10 15:28:05;;;;;;;1.75;0.45;;;;;;;;;;5072342;28;20033;-71
2021/05/10 15:30:32;;;;;;;2.00;1.00;;;;;;;;;;5072300;28;20024;-71
2021/05/10 15:33:02;;;;;;;1.75;0.68;;;;;;;;;;5073494;28;20138;-71
2021/05/10 15:35:28;;;;;;;6.75;0.98;;;;;;;;;;5075143;28;20029;-70
2021/05/10 15:37:55;;;;;;;5.72;1.73;;;;;;;;;;5075898;28;20028;-72
2021/05/10 15:40:21;;;;;;;0.90;0.50;;;;;;;;;;5074154;28;20032;-72
2021/05/10 15:42:49;;;;;;;3.25;0.52;;;;;;;;;;5076136;28;20035;-71
2021/05/10 15:45:17;;;;;;;4.68;1.33;;;;;;;;;;5075615;28;20090;-72
2021/05/10 15:47:45;;;;;;;1.05;1.05;;;;;;;;;;5075341;28;20024;-71
2021/05/10 15:50:12;;;;;;;2.67;1.13;;;;;;;;;;5075847;28;20051;-72
2021/05/10 15:52:38;;;;;;;1.75;1.45;;;;;;;;;;5074356;28;20024;-71
2021/05/10 15:55:05;;;;;;;3.50;1.27;;;;;;;;;;5075425;28;20028;-71
2021/05/10 15:57:31;;;;;;;;;;;;;;;;;;5076074;28;20427;-70
2021/05/10 15:59:58;;;;;;;5.40;1.20;;;;;;;;;;5075210;28;19904;-70
2021/05/10 16:02:24;;;;;;;5.82;1.05;;;;;;;;;;5075162;28;20130;-71
2021/05/10 16:04:50;;;;;;;3.25;0.85;;;;;;;;;;5074441;28;20028;-71
2021/05/10 16:07:17;;;;;;;2.55;0.73;;;;;;;;;;5074203;28;20492;-70
2021/05/10 16:09:43;;;;;;;3.60;0.90;;;;;;;;;;5074667;28;20062;-70
2021/05/10 16:12:10;;;;;;;2.30;2.08;;;;;;;;;;5074782;28;20029;-71
2021/05/10 16:14:36;;;;;;;2.58;1.13;;;;;;;;;;5075412;28;20020;-70
2021/05/10 16:17:03;;;;;;;8.82;1.38;;;;;;;;;;5074781;28;20036;-71